Time;durP1;ratioP1;P1;durP2;ratioP2;P2;SDS_P1;SDS_P2;PMS_P1;PMS_P2;Temp;Humidity;BMP_temperature;BMP_pressure;BME280_temperature;BME280_humidity;BME280_pressure;Samples;Min_cycle;Max_cycle;Signal;HPM_P1;HPM_P2
2021/10/09 00:00:20;;;;;;;16.25;9.35;;;;;;;18.60;63.48;103122.56;4868729;29;20477;-81
2021/10/09 00:02:46;;;;;;;16.85;9.43;;;;;;;18.60;63.46;103114.72;4883648;29;20029;-81
2021/10/09 00:05:11;;;;;;;15.60;9.18;;;;;;;18.60;63.54;103119.94;4865119;29;20032;-81
2021/10/09 00:07:37;;;;;;;16.02;9.20;;;;;;;18.59;63.57;103116.44;4863019;29;20470;-81
2021/10/09 00:10:06;;;;;;;17.00;8.77;;;;;;;18.57;63.59;103110.28;4864971;29;20033;-81
2021/10/09 00:12:32;;;;;;;14.00;9.10;;;;;;;18.58;63.42;103111.19;4884922;29;20039;-81
2021/10/09 00:14:57;;;;;;;15.40;8.50;;;;;;;18.58;63.49;103114.69;4881554;29;20028;-81
2021/10/09 00:17:24;;;;;;;15.02;8.80;;;;;;;18.61;63.44;103121.69;4877612;29;20048;-81
2021/10/09 00:19:50;;;;;;;13.98;8.43;;;;;;;18.59;63.56;103110.34;4883948;29;20363;-81
2021/10/09 00:22:15;;;;;;;14.80;8.52;;;;;;;18.58;63.61;103111.19;4883480;29;20040;-81
2021/10/09 00:24:41;;;;;;;14.18;8.73;;;;;;;18.57;63.32;103112.91;4890185;29;20028;-82
2021/10/09 00:27:06;;;;;;;15.93;9.07;;;;;;;18.56;63.45;103113.75;4849238;29;20085;-81
2021/10/09 00:29:31;;;;;;;14.25;8.82;;;;;;;18.57;63.60;103117.25;4857771;29;20103;-81
2021/10/09 00:31:57;;;;;;;14.82;9.07;;;;;;;18.56;63.63;103124.19;4882945;29;20071;-81
2021/10/09 00:34:22;;;;;;;12.60;8.18;;;;;;;18.56;63.47;103111.16;4861808;29;20044;-82
2021/10/09 00:36:48;;;;;;;13.55;8.88;;;;;;;18.57;63.30;103114.63;4855384;29;20125;-81
2021/10/09 00:39:13;;;;;;;13.50;8.40;;;;;;;18.55;63.52;103113.72;4849939;29;20443;-81
2021/10/09 00:41:38;;;;;;;14.77;8.23;;;;;;;18.55;63.40;103113.72;4890388;29;20036;-81
2021/10/09 00:44:12;;;;;;;14.45;8.80;;;;;;;18.56;63.44;103116.38;4851284;29;20127;-81
2021/10/09 00:46:38;;;;;;;;;;;;;;;18.57;63.37;103114.63;4881667;29;20033;-81
2021/10/09 00:49:04;;;;;;;15.80;8.07;;;;;;;18.56;63.53;103110.28;4872367;29;19920;-81
2021/10/09 00:51:30;;;;;;;12.32;8.27;;;;;;;18.53;63.49;103105.88;4873860;29;20041;-81
2021/10/09 00:53:57;;;;;;;13.80;8.35;;;;;;;18.55;63.78;103112.00;4865520;29;20486;-80
2021/10/09 00:56:24;;;;;;;13.60;8.35;;;;;;;18.55;63.31;103113.72;4880784;29;20043;-83
2021/10/09 00:58:51;;;;;;;13.88;8.45;;;;;;;18.53;63.22;103108.50;4872068;29;20045;-81
2021/10/09 01:01:18;;;;;;;12.85;7.78;;;;;;;18.54;63.49;103109.38;4881353;29;20032;-82
2021/10/09 01:03:47;;;;;;;12.93;7.97;;;;;;;18.53;63.42;103103.28;4879172;29;20028;-81
2021/10/09 01:06:12;;;;;;;12.55;7.75;;;;;;;18.53;63.38;103099.78;4879220;29;20602;-81
2021/10/09 01:08:37;;;;;;;11.73;7.90;;;;;;;18.55;63.25;103105.91;4864416;29;20123;-82
2021/10/09 01:11:03;;;;;;;14.13;7.72;;;;;;;18.52;63.39;103101.50;4859377;29;20056;-81
2021/10/09 01:13:28;;;;;;;13.57;7.75;;;;;;;18.50;63.46;103096.25;4882953;29;20035;-81
2021/10/09 01:15:54;;;;;;;13.77;7.72;;;;;;;18.52;63.33;103093.69;4894057;29;20033;-82
2021/10/09 01:18:20;;;;;;;12.13;7.70;;;;;;;18.52;63.25;103101.50;4888849;29;20104;-81
2021/10/09 01:20:54;;;;;;;13.20;8.18;;;;;;;18.49;63.41;103093.63;4886513;29;20033;-81
2021/10/09 01:23:22;;;;;;;13.50;8.18;;;;;;;18.50;63.32;103085.81;4869714;29;20040;-81
2021/10/09 01:25:48;;;;;;;12.25;7.82;;;;;;;18.49;63.29;103086.69;4883524;29;20115;-81
2021/10/09 01:28:14;;;;;;;14.00;7.95;;;;;;;18.49;63.32;103085.81;4876780;29;20033;-82
2021/10/09 01:30:40;;;;;;;12.18;7.47;;;;;;;18.49;63.59;103089.28;4885941;29;20035;-82
2021/10/09 01:33:07;;;;;;;14.15;8.20;;;;;;;18.49;63.34;103091.91;4884216;29;21885;-81
2021/10/09 01:35:49;;;;;;;12.35;7.55;;;;;;;18.50;63.36;103090.16;4886634;29;20434;-83
2021/10/09 01:38:14;;;;;;;10.82;7.55;;;;;;;18.49;63.28;103088.41;4884810;29;20623;-81
2021/10/09 01:40:40;;;;;;;13.30;7.60;;;;;;;18.50;63.45;103090.16;4878767;29;20033;-82
2021/10/09 01:43:09;;;;;;;13.98;7.72;;;;;;;18.49;63.29;103089.28;4865699;29;20037;-82
2021/10/09 01:45:34;;;;;;;13.35;7.57;;;;;;;18.49;63.33;103078.84;4894994;29;20044;-81
2021/10/09 01:48:00;;;;;;;12.63;7.70;;;;;;;18.50;63.29;103083.22;4882564;29;20028;-81
2021/10/09 01:50:25;;;;;;;12.45;7.53;;;;;;;18.50;63.44;103087.56;4864143;29;20053;-81
2021/10/09 01:52:50;;;;;;;12.23;7.32;;;;;;;18.49;63.25;103091.03;4879118;29;20040;-81
2021/10/09 01:55:16;;;;;;;11.10;6.80;;;;;;;18.47;63.41;103085.75;4861621;29;20049;-82
2021/10/09 01:57:41;;;;;;;11.82;7.35;;;;;;;18.48;63.60;103086.63;4913640;29;20392;-83
2021/10/09 02:10:21;;;;;;;11.32;7.10;;;;;;;18.47;63.32;103077.06;4906604;29;20426;-83
2021/10/09 02:12:47;;;;;;;16.05;8.05;;;;;;;18.47;63.42;103075.34;4878845;29;20164;-83
2021/10/09 02:18:44;;;;;;;10.88;6.90;;;;;;;18.46;63.54;103076.16;4900431;29;20035;-82
2021/10/09 02:26:38;;;;;;;9.55;6.60;;;;;;;18.46;63.25;103075.28;4898506;29;20037;-85
2021/10/09 02:29:36;;;;;;;11.85;6.95;;;;;;;18.45;63.25;103064.00;4884227;29;20029;-83
2021/10/09 02:35:13;;;;;;;10.15;6.68;;;;;;;18.45;63.52;103063.13;4902028;29;20501;-82
2021/10/09 02:41:24;;;;;;;10.85;6.57;;;;;;;18.45;63.18;103065.72;4923904;29;20075;-83
2021/10/09 02:47:12;;;;;;;11.00;6.85;;;;;;;18.43;63.28;103062.19;4910708;29;20044;-82
2021/10/09 02:50:12;;;;;;;11.65;6.82;;;;;;;18.45;63.61;103073.53;4901946;29;20029;-82
2021/10/09 02:53:26;;;;;;;9.48;6.40;;;;;;;18.43;63.25;103057.84;4920905;29;20034;-82
2021/10/09 02:59:26;;;;;;;11.73;6.57;;;;;;;18.41;63.18;103059.53;4918555;29;20044;-83
2021/10/09 03:02:29;;;;;;;10.25;6.65;;;;;;;18.42;63.24;103063.94;4885467;29;20037;-83
2021/10/09 03:04:59;;;;;;;11.02;7.00;;;;;;;18.41;63.21;103056.06;4904249;29;20036;-83
2021/10/09 03:38:25;;;;;;;8.77;6.00;;;;;;;18.39;63.16;103056.03;4904003;29;20074;-82
2021/10/09 03:44:36;;;;;;;8.30;5.53;;;;;;;18.38;63.35;103048.16;4899431;29;20058;-84
2021/10/09 04:01:06;;;;;;;10.65;6.32;;;;;;;18.37;63.14;103052.50;4865848;29;20126;-82
2021/10/09 04:03:47;;;;;;;8.25;5.63;;;;;;;18.36;63.26;103052.50;4819307;29;20042;-82
2021/10/09 04:08:59;;;;;;;8.25;5.85;;;;;;;18.35;63.47;103046.38;5170545;23;20095;-82
2021/10/09 04:11:24;;;;;;;8.82;5.65;;;;;;;18.36;63.16;103052.50;4929445;29;20047;-81
2021/10/09 04:17:13;;;;;;;8.50;5.85;;;;;;;18.33;63.09;103050.66;4962122;28;20119;-82
2021/10/09 04:23:13;;;;;;;8.50;6.28;;;;;;;18.35;63.12;103050.72;4961039;28;20070;-82
2021/10/09 04:29:24;;;;;;;10.75;6.07;;;;;;;18.32;63.24;103043.72;4953603;28;20047;-82
2021/10/09 04:52:23;;;;;;;7.70;5.55;;;;;;;18.32;62.98;103037.63;4920660;29;20127;-82
2021/10/09 05:09:01;;;;;;;8.77;5.63;;;;;;;18.30;63.01;103035.84;4902822;29;20068;-84
2021/10/09 05:11:28;;;;;;;8.38;5.65;;;;;;;18.29;63.08;103033.19;4896642;29;20033;-83
2021/10/09 05:21:03;;;;;;;7.35;5.53;;;;;;;18.29;63.08;103036.72;4908673;29;20189;-82
2021/10/09 05:23:31;;;;;;;6.03;4.97;;;;;;;18.29;63.24;103033.19;4918272;29;20056;-82
2021/10/09 05:25:58;;;;;;;7.15;4.93;;;;;;;18.28;63.22;103040.13;4914975;29;20077;-82
2021/10/09 05:28:29;;;;;;;9.80;5.50;;;;;;;18.28;63.03;103034.06;4899316;29;20033;-82
2021/10/09 05:34:34;;;;;;;7.40;5.50;;;;;;;18.29;63.08;103038.41;4898256;29;20062;-82
2021/10/09 05:37:53;;;;;;;7.88;5.40;;;;;;;18.28;63.02;103042.75;4883498;29;20072;-83
2021/10/09 05:40:19;;;;;;;8.20;5.65;;;;;;;18.27;63.43;103041.00;4881539;29;20029;-82
2021/10/09 05:47:08;;;;;;;8.55;5.30;;;;;;;18.27;63.09;103041.00;4826066;29;20133;-83
2021/10/09 06:02:15;;;;;;;7.60;5.45;;;;;;;18.27;62.90;103054.03;4891905;29;20061;-80
2021/10/09 07:01:24;;;;;;;7.00;5.00;;;;;;;18.47;62.32;103085.75;4879689;29;20112;-81
2021/10/09 07:03:49;;;;;;;6.40;5.47;;;;;;;18.47;62.56;103088.38;4872096;29;20477;-80
2021/10/09 07:06:17;;;;;;;6.45;5.10;;;;;;;18.49;62.14;103088.41;4884473;29;20076;-80
2021/10/09 07:08:42;;;;;;;6.18;5.10;;;;;;;18.51;62.01;103091.94;4876898;29;20092;-81
2021/10/09 07:11:08;;;;;;;6.57;5.40;;;;;;;18.51;62.37;103089.31;4873572;29;20037;-81
2021/10/09 07:13:34;;;;;;;6.75;5.20;;;;;;;18.52;62.17;103087.59;4870240;29;20048;-80
2021/10/09 07:15:59;;;;;;;6.47;5.05;;;;;;;18.52;62.10;103088.47;4901015;29;20028;-82
2021/10/09 07:18:25;;;;;;;6.85;5.43;;;;;;;18.58;62.09;103091.22;4885772;29;20115;-80
2021/10/09 07:20:50;;;;;;;9.13;6.05;;;;;;;18.60;62.03;103099.97;4880800;29;20035;-82
2021/10/09 07:23:16;;;;;;;8.88;7.00;;;;;;;18.61;62.11;103101.69;4887567;29;20028;-83
2021/10/09 07:25:42;;;;;;;9.20;7.57;;;;;;;18.57;61.85;103097.25;4900337;29;20046;-84
2021/10/09 07:28:07;;;;;;;15.43;9.57;;;;;;;18.58;61.92;103100.78;4884812;29;20479;-81
2021/10/09 07:30:33;;;;;;;14.45;9.30;;;;;;;18.64;61.45;103101.78;4901573;29;20442;-80
2021/10/09 07:32:59;;;;;;;13.02;8.93;;;;;;;18.79;61.28;103108.19;4899869;29;20107;-77
2021/10/09 07:35:25;;;;;;;14.13;9.18;;;;;;;18.87;60.88;103107.50;4899429;29;20025;-78
2021/10/09 07:37:57;;;;;;;16.23;9.70;;;;;;;19.00;60.49;103103.44;4897840;29;20178;-85
2021/10/09 07:40:22;;;;;;;12.57;9.15;;;;;;;19.14;60.22;103102.81;4899929;29;20068;-80
2021/10/09 07:42:48;;;;;;;13.82;9.07;;;;;;;19.23;59.99;103110.88;4885856;29;20037;-81
2021/10/09 07:45:14;;;;;;;14.68;8.80;;;;;;;19.31;59.62;103109.25;4891845;29;20490;-79
2021/10/09 07:47:40;;;;;;;12.80;8.30;;;;;;;19.36;59.50;103111.97;4883447;29;20036;-79
2021/10/09 07:50:05;;;;;;;13.15;9.05;;;;;;;19.41;59.22;103113.81;4857936;29;20123;-80
2021/10/09 07:52:30;;;;;;;12.32;8.25;;;;;;;19.42;59.19;103110.34;4879980;29;20068;-80
2021/10/09 07:54:56;;;;;;;11.27;8.80;;;;;;;19.46;59.16;103112.16;4874377;29;20061;-80
2021/10/09 07:57:21;;;;;;;16.63;8.68;;;;;;;19.47;59.16;103108.72;4865076;29;20116;-79
2021/10/09 07:59:47;;;;;;;11.20;8.25;;;;;;;19.48;59.22;103114.81;4875574;29;20121;-80
2021/10/09 08:02:12;;;;;;;13.43;8.93;;;;;;;19.50;59.26;103118.34;4895901;29;20123;-83
2021/10/09 08:04:38;;;;;;;15.68;9.05;;;;;;;19.49;59.18;103117.47;4882921;29;20036;-87
2021/10/09 08:07:03;;;;;;;12.75;9.35;;;;;;;19.50;59.21;103118.34;4877335;29;20131;-85
2021/10/09 08:09:34;;;;;;;14.85;9.43;;;;;;;19.49;59.19;103124.41;4865158;29;20045;-84
2021/10/09 08:12:00;;;;;;;11.10;9.05;;;;;;;19.48;58.95;103120.91;4879668;29;20115;-83
2021/10/09 08:14:26;;;;;;;12.80;9.57;;;;;;;19.57;59.11;103127.16;4872160;29;20120;-84
2021/10/09 08:16:51;;;;;;;11.43;9.30;;;;;;;19.58;58.93;103132.41;4887356;29;20037;-84
2021/10/09 08:19:17;;;;;;;12.60;8.85;;;;;;;19.55;59.03;103126.25;4881352;29;20033;-80
2021/10/09 08:21:44;;;;;;;13.07;9.57;;;;;;;19.60;58.62;103132.44;4870078;29;20033;-83
2021/10/09 08:35:28;;;;;;;11.85;9.32;;;;;;;19.61;58.53;103136.81;4891586;29;20092;-84
2021/10/09 08:40:37;;;;;;;10.50;8.88;;;;;;;19.64;58.63;103137.75;4880039;29;20051;-82
2021/10/09 08:43:02;;;;;;;11.25;8.30;;;;;;;19.62;58.87;103130.72;4878533;29;20032;-81
2021/10/09 08:45:28;;;;;;;9.25;8.18;;;;;;;19.60;58.86;103122.88;4900981;29;20525;-85
2021/10/09 08:47:54;;;;;;;9.50;8.13;;;;;;;19.60;58.85;103128.09;4906518;29;20032;-86
2021/10/09 08:50:19;;;;;;;10.55;8.52;;;;;;;19.61;58.83;103132.47;4883416;29;20029;-81
2021/10/09 08:53:09;;;;;;;9.50;7.95;;;;;;;19.62;58.69;103133.34;4897268;29;20032;-83
2021/10/09 08:55:37;;;;;;;9.18;7.65;;;;;;;19.57;58.86;103127.16;4889214;29;20101;-84
2021/10/09 08:58:07;;;;;;;10.45;8.15;;;;;;;19.55;58.87;103136.69;4884799;29;20385;-85
2021/10/09 09:03:26;;;;;;;9.68;7.40;;;;;;;19.50;59.14;103134.88;4898701;29;20031;-82
2021/10/09 09:41:21;;;;;;;22.83;12.07;;;;;;;18.87;58.28;103125.78;4903567;29;20043;-85
2021/10/09 09:43:46;;;;;;;14.55;10.80;;;;;;;18.86;58.42;103123.16;4884000;29;20059;-83
2021/10/09 09:46:17;;;;;;;17.95;10.85;;;;;;;18.90;58.75;103127.56;4868397;29;20020;-84
2021/10/09 09:48:44;;;;;;;21.92;10.02;;;;;;;18.96;58.84;103127.69;4889941;29;20082;-85
2021/10/09 09:51:11;;;;;;;22.88;11.07;;;;;;;18.94;58.72;103124.19;4887481;29;20120;-85
2021/10/09 09:53:39;;;;;;;26.65;10.73;;;;;;;18.93;58.20;103119.81;4854440;29;20395;-86
2021/10/09 09:56:13;;;;;;;20.92;11.65;;;;;;;18.90;58.58;103122.34;4884789;29;20027;-86
2021/10/09 09:58:40;;;;;;;;;;;;;;;18.86;58.99;103123.16;4868960;29;20039;-87
2021/10/09 10:01:07;;;;;;;16.55;10.45;;;;;;;18.88;58.81;103122.34;4882817;29;19912;-84
2021/10/09 10:03:34;;;;;;;14.13;10.35;;;;;;;18.90;59.30;103122.34;4882865;29;20032;-88
2021/10/09 10:06:01;;;;;;;12.00;9.15;;;;;;;18.90;59.59;103123.25;4884320;29;20037;-89
2021/10/09 10:08:27;;;;;;;15.93;9.93;;;;;;;18.88;59.57;103117.13;4885440;29;20063;-87
2021/10/09 10:10:56;;;;;;;14.13;11.10;;;;;;;18.89;59.05;103123.22;4883716;29;20037;-87
2021/10/09 10:13:30;;;;;;;15.95;9.70;;;;;;;18.89;59.14;103120.59;4883086;29;20393;-86
2021/10/09 10:15:57;;;;;;;14.23;11.27;;;;;;;18.83;59.71;103121.34;4884058;29;20029;-86
2021/10/09 10:19:01;;;;;;;18.08;11.05;;;;;;;18.87;59.37;103125.78;4851786;29;20124;-86
2021/10/09 10:28:21;;;;;;;11.13;9.07;;;;;;;18.88;59.66;103118.84;4889273;29;20100;-87
2021/10/09 10:31:04;;;;;;;15.48;11.40;;;;;;;18.81;58.77;103114.34;4873630;29;20405;-81
2021/10/09 10:33:35;;;;;;;15.38;12.38;;;;;;;18.73;58.66;103124.59;4869173;29;20025;-80
2021/10/09 10:36:01;;;;;;;15.35;11.43;;;;;;;18.73;59.06;103121.97;4851606;29;20025;-80
2021/10/09 10:38:34;;;;;;;13.25;10.75;;;;;;;18.74;59.12;103115.03;4880854;29;20033;-85
2021/10/09 10:41:10;;;;;;;14.48;11.40;;;;;;;18.77;59.14;103122.91;4882495;29;20028;-86
2021/10/09 10:43:40;;;;;;;16.23;10.98;;;;;;;18.76;58.74;103122.03;4853281;29;20040;-82
2021/10/09 10:46:32;;;;;;;12.60;10.50;;;;;;;18.79;59.22;103116.94;4866658;29;20025;-81
2021/10/09 10:54:12;;;;;;;13.57;11.90;;;;;;;18.77;59.13;103117.69;4891486;29;20029;-85
2021/10/09 11:00:15;;;;;;;12.00;9.30;;;;;;;18.87;59.56;103124.91;4889954;29;20097;-85
2021/10/09 11:02:46;;;;;;;18.88;11.57;;;;;;;18.95;59.15;103125.09;4887019;29;20036;-83
2021/10/09 11:05:14;;;;;;;16.15;10.32;;;;;;;18.99;59.18;103113.84;4869397;29;20025;-84
2021/10/09 11:07:42;;;;;;;16.38;10.63;;;;;;;19.01;60.28;103119.97;4869172;29;20482;-83
2021/10/09 11:10:19;;;;;;;19.23;14.20;;;;;;;18.65;62.94;103113.09;4882964;29;20028;-80
2021/10/09 11:12:49;;;;;;;18.40;12.23;;;;;;;18.36;65.34;103120.25;4851243;29;20112;-80
2021/10/09 11:15:18;;;;;;;17.35;12.45;;;;;;;18.27;65.78;103124.41;4895090;29;20045;-82
2021/10/09 11:17:54;;;;;;;16.92;13.68;;;;;;;18.15;65.74;103115.41;4880760;29;20036;-83
2021/10/09 11:20:23;;;;;;;16.77;11.90;;;;;;;18.16;65.22;103114.56;4897690;29;20029;-78
2021/10/09 11:22:50;;;;;;;15.40;11.75;;;;;;;18.18;65.85;103118.06;4880667;29;20053;-84
2021/10/09 11:28:29;;;;;;;16.90;11.85;;;;;;;18.18;64.64;103105.94;5368958;23;20056;-83
2021/10/09 11:30:55;;;;;;;15.82;14.13;;;;;;;18.08;65.96;103112.66;4927183;29;20036;-83
2021/10/09 11:33:25;;;;;;;13.15;11.10;;;;;;;18.18;64.64;103112.84;4925692;29;20032;-84
2021/10/09 11:35:52;;;;;;;11.57;10.38;;;;;;;18.23;64.56;103106.94;4939502;29;20020;-84
2021/10/09 11:38:24;;;;;;;14.18;12.10;;;;;;;18.17;65.75;103106.78;4925123;29;20039;-85
2021/10/09 11:40:56;;;;;;;11.73;10.48;;;;;;;18.14;64.95;103104.13;4927420;29;20131;-85
2021/10/09 11:43:49;;;;;;;14.48;12.73;;;;;;;18.15;65.86;103111.06;4909001;29;20039;-81
2021/10/09 11:55:17;;;;;;;15.52;12.02;;;;;;;18.26;65.63;103095.69;4876646;29;20040;-81
2021/10/09 11:57:43;;;;;;;12.48;10.43;;;;;;;18.27;64.68;103098.34;4906954;29;20034;-80
2021/10/09 12:00:27;;;;;;;12.13;10.48;;;;;;;18.26;64.59;103099.16;4909412;29;20409;-79
2021/10/09 12:02:56;;;;;;;12.82;9.45;;;;;;;18.28;64.51;103099.22;4928735;29;20028;-81
2021/10/09 12:05:22;;;;;;;13.18;10.90;;;;;;;18.26;65.31;103104.38;4903715;29;20024;-82
2021/10/09 12:08:17;;;;;;;13.75;10.02;;;;;;;18.30;65.07;103097.53;4894614;29;20401;-80
2021/10/09 12:11:09;;;;;;;13.73;10.95;;;;;;;18.30;65.00;103097.53;4903135;29;20036;-81
2021/10/09 12:14:07;;;;;;;14.35;9.75;;;;;;;18.34;65.09;103098.50;4919452;29;20157;-80
2021/10/09 12:16:33;;;;;;;12.45;11.15;;;;;;;18.32;64.67;103102.78;4904280;29;20038;-81
2021/10/09 12:19:14;;;;;;;11.00;9.43;;;;;;;18.33;64.72;103096.72;4902582;29;20028;-81
2021/10/09 12:21:52;;;;;;;14.05;9.93;;;;;;;18.40;64.60;103089.09;4919764;29;20032;-80
2021/10/09 12:24:22;;;;;;;11.90;9.55;;;;;;;18.42;64.45;103082.19;4908547;29;20028;-83
2021/10/09 12:27:17;;;;;;;13.77;10.95;;;;;;;18.40;65.16;103086.47;4899093;29;20092;-84
2021/10/09 12:29:59;;;;;;;11.23;9.95;;;;;;;18.39;65.18;103087.31;4890357;29;20096;-83
2021/10/09 12:32:26;;;;;;;14.00;9.85;;;;;;;18.41;64.52;103077.78;4890508;29;20039;-83
2021/10/09 12:35:10;;;;;;;12.73;11.45;;;;;;;18.39;64.90;103076.88;4889216;29;20048;-83
2021/10/09 12:37:37;;;;;;;11.15;9.52;;;;;;;18.38;65.04;103077.75;4888202;29;20025;-83
2021/10/09 12:40:06;;;;;;;11.30;10.13;;;;;;;18.42;64.72;103076.06;4872861;29;20041;-83
2021/10/09 12:42:31;;;;;;;11.32;9.52;;;;;;;18.45;64.95;103069.19;4888769;29;20024;-84
2021/10/09 12:44:57;;;;;;;11.38;9.48;;;;;;;18.52;64.32;103067.59;4887477;29;20059;-84
2021/10/09 12:47:22;;;;;;;12.65;10.10;;;;;;;18.49;64.14;103064.94;4870538;29;20067;-84
2021/10/09 12:49:47;;;;;;;13.18;9.75;;;;;;;18.48;64.90;103068.38;4901970;29;20095;-84
2021/10/09 12:52:13;;;;;;;10.55;9.55;;;;;;;18.49;64.33;103063.22;4870047;29;20033;-85
2021/10/09 12:54:38;;;;;;;11.85;10.05;;;;;;;18.56;64.12;103061.63;4887724;29;20040;-84
2021/10/09 12:57:08;;;;;;;10.45;9.35;;;;;;;18.57;64.45;103058.16;4886326;29;20031;-84
2021/10/09 12:59:35;;;;;;;11.40;10.02;;;;;;;18.57;64.55;103054.66;4872131;29;20033;-84
2021/10/09 13:02:01;;;;;;;12.02;10.50;;;;;;;18.52;64.74;103051.97;4901331;29;20036;-83
2021/10/09 13:04:27;;;;;;;11.57;10.38;;;;;;;18.51;64.50;103052.81;4872191;29;20052;-83
2021/10/09 13:06:52;;;;;;;10.43;9.43;;;;;;;18.52;64.94;103045.88;4886946;29;20033;-83
2021/10/09 13:09:17;;;;;;;13.55;11.00;;;;;;;18.51;64.39;103050.22;4869475;29;20043;-84
2021/10/09 13:11:49;;;;;;;11.55;9.70;;;;;;;18.54;64.43;103049.41;4870899;29;20038;-83
2021/10/09 13:14:15;;;;;;;11.63;10.43;;;;;;;18.55;64.27;103048.53;4885910;29;20052;-85
2021/10/09 13:16:40;;;;;;;10.27;9.27;;;;;;;18.58;64.36;103046.00;4869069;29;20037;-83
2021/10/09 13:19:06;;;;;;;12.13;10.70;;;;;;;18.57;64.20;103042.50;4868017;29;20051;-84
2021/10/09 13:21:32;;;;;;;11.10;9.60;;;;;;;18.59;64.34;103047.75;4884879;29;20043;-84
2021/10/09 13:23:57;;;;;;;14.45;11.10;;;;;;;18.60;64.13;103037.38;4886722;29;20076;-86
2021/10/09 13:26:23;;;;;;;11.77;9.85;;;;;;;18.59;64.53;103035.59;4895344;29;20032;-86
2021/10/09 13:28:51;;;;;;;16.20;10.18;;;;;;;18.64;63.81;103031.38;4892698;29;20408;-85
2021/10/09 13:31:17;;;;;;;12.20;10.90;;;;;;;18.60;64.36;103036.50;4888660;29;20063;-84
2021/10/09 13:33:47;;;;;;;14.50;11.63;;;;;;;18.56;68.51;103027.72;4884467;29;20033;-84
2021/10/09 13:36:12;;;;;;;14.40;11.77;;;;;;;18.40;71.06;103038.66;4899209;29;20036;-82
2021/10/09 13:38:39;;;;;;;12.80;11.52;;;;;;;18.33;71.49;103034.16;4882225;29;20076;-81
2021/10/09 13:41:06;;;;;;;15.55;11.95;;;;;;;18.26;70.35;103034.00;4882567;29;20032;-82
2021/10/09 13:43:31;;;;;;;16.45;11.27;;;;;;;18.26;70.75;103033.13;4900358;29;20385;-82
2021/10/09 13:45:56;;;;;;;13.38;12.00;;;;;;;18.26;70.46;103033.13;4901700;29;20115;-83
2021/10/09 13:48:22;;;;;;;13.95;12.45;;;;;;;18.24;71.46;103021.78;4905027;29;20048;-82
2021/10/09 13:50:52;;;;;;;13.80;12.43;;;;;;;18.24;70.97;103024.41;4903394;29;20108;-81
2021/10/09 13:53:18;;;;;;;15.15;12.20;;;;;;;18.22;71.26;103031.31;4883283;29;20132;-81
2021/10/09 13:55:43;;;;;;;12.93;11.57;;;;;;;18.24;70.92;103030.50;4885397;29;20127;-84
2021/10/09 13:58:10;;;;;;;13.13;11.77;;;;;;;18.23;71.72;103026.13;4888546;29;20433;-82
2021/10/09 14:10:42;;;;;;;13.15;11.85;;;;;;;18.34;71.20;103023.78;4914238;29;20051;-85
2021/10/09 14:13:11;;;;;;;13.43;12.10;;;;;;;18.34;72.07;103017.69;4895657;29;20053;-85
2021/10/09 14:18:58;;;;;;;12.90;11.60;;;;;;;18.33;71.41;103006.34;4919285;29;20044;-85
2021/10/09 14:27:33;;;;;;;14.43;12.45;;;;;;;18.31;70.55;103002.84;5162156;23;20055;-86
2021/10/09 14:39:49;;;;;;;13.32;12.02;;;;;;;18.34;71.24;103000.31;5280153;23;20064;-85
2021/10/09 14:42:14;;;;;;;12.93;11.63;;;;;;;18.35;71.29;102990.75;4923272;29;20051;-87
2021/10/09 15:29:45;;;;;;;31.90;14.77;;;;;;;18.57;68.44;102971.22;5304195;23;20080;-86
2021/10/09 15:41:57;;;;;;;39.72;17.65;;;;;;;18.63;67.63;102969.63;5015712;23;20071;-89
2021/10/09 16:00:52;;;;;;;28.27;14.20;;;;;;;18.64;67.26;102968.78;5023095;23;20106;-89
2021/10/09 16:03:18;;;;;;;23.63;14.70;;;;;;;18.63;67.62;102967.00;4921463;29;20024;-88
2021/10/09 16:18:44;;;;;;;21.48;12.88;;;;;;;18.63;66.65;102971.34;4940070;29;20050;-91
2021/10/09 16:33:14;;;;;;;17.25;13.10;;;;;;;18.60;67.29;102966.97;5088131;23;20074;-89
2021/10/09 16:44:29;;;;;;;18.27;12.98;;;;;;;18.61;67.52;102967.84;5035039;23;20064;-88
2021/10/09 16:55:48;;;;;;;19.38;12.88;;;;;;;18.57;67.65;102960.78;5138205;23;20151;-88
2021/10/09 17:10:37;;;;;;;20.13;12.40;;;;;;;18.55;67.87;102963.38;5095018;23;20064;-89
2021/10/09 17:13:02;;;;;;;17.40;12.07;;;;;;;18.55;67.69;102962.50;4934866;29;20032;-88
2021/10/09 17:18:56;;;;;;;13.55;11.27;;;;;;;18.52;67.87;102968.53;4974543;23;20060;-89
2021/10/09 17:24:44;;;;;;;17.60;12.18;;;;;;;18.52;68.05;102957.22;5060254;23;20476;-89
2021/10/09 17:27:10;;;;;;;20.42;13.10;;;;;;;18.53;69.04;102964.19;4903073;29;20111;-85
2021/10/09 17:29:35;;;;;;;16.27;11.88;;;;;;;18.51;68.00;102966.78;4906720;29;20036;-85
2021/10/09 17:32:01;;;;;;;16.17;12.02;;;;;;;18.52;68.55;102968.53;4905760;29;20107;-84
2021/10/09 17:34:26;;;;;;;14.73;11.30;;;;;;;18.52;67.62;102962.44;4923452;29;20031;-83
2021/10/09 17:36:52;;;;;;;16.20;12.38;;;;;;;18.52;68.32;102965.91;4907156;29;20028;-86
2021/10/09 17:39:17;;;;;;;15.25;12.18;;;;;;;18.52;68.50;102965.91;4889799;29;20039;-84
2021/10/09 17:41:43;;;;;;;15.95;11.75;;;;;;;18.52;68.15;102968.53;4905750;29;20063;-83
2021/10/09 17:44:08;;;;;;;12.82;11.00;;;;;;;18.52;67.99;102965.91;4892091;29;20036;-85
2021/10/09 17:53:18;;;;;;;14.43;11.50;;;;;;;18.50;67.47;102968.47;4922661;29;20035;-84
2021/10/09 17:55:45;;;;;;;18.45;12.10;;;;;;;18.50;68.03;102963.28;4906177;29;20036;-84
2021/10/09 17:58:12;;;;;;;15.23;11.32;;;;;;;18.50;68.56;102965.88;4907341;29;20024;-85
2021/10/09 18:00:40;;;;;;;14.57;11.93;;;;;;;18.51;68.05;102972.00;4922460;29;20032;-84
2021/10/09 18:03:05;;;;;;;14.98;11.68;;;;;;;18.50;68.11;102971.09;4889940;29;20039;-86
2021/10/09 18:09:05;;;;;;;15.90;12.55;;;;;;;18.59;69.04;102975.63;5014765;23;20068;-84
2021/10/09 18:14:35;;;;;;;17.17;12.18;;;;;;;18.55;70.57;102983.34;5164239;23;20056;-79
2021/10/09 18:20:23;;;;;;;14.80;11.93;;;;;;;18.36;71.64;102977.75;4937228;29;20063;-83
2021/10/09 18:23:27;;;;;;;18.50;12.57;;;;;;;18.29;71.95;102992.41;4921127;29;20127;-82
2021/10/09 18:26:08;;;;;;;17.30;12.52;;;;;;;18.26;71.62;102986.22;4935060;29;20032;-79
2021/10/09 18:28:34;;;;;;;16.40;12.90;;;;;;;18.23;72.02;102988.78;4905805;29;20054;-81
2021/10/09 18:30:59;;;;;;;16.73;12.65;;;;;;;18.20;71.94;102993.91;4886241;29;20032;-82
2021/10/09 18:33:24;;;;;;;15.63;12.48;;;;;;;18.19;72.23;102989.56;4904229;29;20032;-82
2021/10/09 18:35:50;;;;;;;20.77;12.20;;;;;;;18.18;72.48;102993.88;4905182;29;20028;-82
2021/10/09 18:38:16;;;;;;;18.10;12.85;;;;;;;18.16;72.53;102994.69;4904298;29;20036;-80
2021/10/09 18:40:41;;;;;;;18.60;13.23;;;;;;;18.15;72.31;102995.53;4928681;29;20047;-83
2021/10/09 18:43:07;;;;;;;15.93;12.85;;;;;;;18.14;72.11;102996.38;4925114;29;20155;-81
2021/10/09 18:45:32;;;;;;;14.25;12.77;;;;;;;18.14;72.65;102993.75;4901760;29;20251;-81
2021/10/09 18:47:59;;;;;;;17.10;12.10;;;;;;;18.12;72.46;103004.16;4901186;29;20075;-81
2021/10/09 18:50:24;;;;;;;17.58;12.13;;;;;;;18.11;72.24;102999.78;4923511;29;20061;-83
2021/10/09 18:52:49;;;;;;;16.02;12.32;;;;;;;18.12;72.43;102998.06;4912686;29;20036;-81
2021/10/09 18:55:15;;;;;;;19.75;12.70;;;;;;;18.12;72.58;103003.28;4910300;29;20040;-82
2021/10/09 18:57:41;;;;;;;15.63;12.23;;;;;;;18.09;72.01;102996.25;4914998;29;20036;-84
2021/10/09 19:00:08;;;;;;;17.10;12.60;;;;;;;18.10;72.85;103003.25;4895145;29;20040;-83
2021/10/09 19:02:35;;;;;;;16.75;12.90;;;;;;;18.08;72.20;102994.53;4908800;29;20028;-79
2021/10/09 19:05:00;;;;;;;15.77;12.57;;;;;;;18.11;72.29;102996.31;4910638;29;20099;-82
2021/10/09 19:07:26;;;;;;;15.45;12.95;;;;;;;18.09;72.17;103009.28;4913318;29;20028;-83
2021/10/09 19:09:54;;;;;;;17.70;11.93;;;;;;;18.08;73.40;102999.72;4912585;29;20174;-82
2021/10/09 19:12:20;;;;;;;14.60;12.48;;;;;;;18.06;72.05;102999.69;4929383;29;20048;-82
2021/10/09 19:14:45;;;;;;;16.63;13.13;;;;;;;18.08;72.22;103002.34;4890791;29;20044;-82